Time;durP1;ratioP1;P1;durP2;ratioP2;P2;SDS_P1;SDS_P2;PMS_P1;PMS_P2;Temp;Humidity;BMP_temperature;BMP_pressure;BME280_temperature;BME280_humidity;BME280_pressure;Samples;Min_cycle;Max_cycle;Signal;HPM_P1;HPM_P2
2024/03/22 00:02:21;;;;;;;15.47;13.87;;;11.00;40.80;;;;;;10350383;28;20261;-72
2024/03/22 00:07:25;;;;;;;13.07;11.77;;;11.00;40.80;;;;;;10342975;28;20328;-73
2024/03/22 00:12:27;;;;;;;14.87;13.30;;;10.90;40.70;;;;;;10346549;28;20258;-73
2024/03/22 00:17:31;;;;;;;14.47;13.17;;;10.90;40.70;;;;;;10348585;28;20254;-73
2024/03/22 00:22:35;;;;;;;14.30;12.97;;;10.80;40.60;;;;;;10348830;28;20261;-73
2024/03/22 00:27:37;;;;;;;15.50;13.93;;;10.80;40.60;;;;;;10344263;28;20789;-73
2024/03/22 00:32:39;;;;;;;15.03;13.63;;;10.70;40.50;;;;;;10346239;28;20254;-72
2024/03/22 00:37:43;;;;;;;15.57;14.07;;;10.60;40.50;;;;;;10365832;28;20259;-73
2024/03/22 00:42:46;;;;;;;14.43;12.93;;;10.50;41.00;;;;;;10352077;28;20254;-73
2024/03/22 00:47:48;;;;;;;14.70;12.93;;;10.40;41.00;;;;;;10350323;28;20289;-73
2024/03/22 00:52:54;;;;;;;15.27;13.67;;;10.40;41.10;;;;;;10365335;28;20719;-73
2024/03/22 00:57:56;;;;;;;14.93;13.43;;;10.30;42.30;;;;;;10349224;28;20249;-73
2024/03/22 01:02:59;;;;;;;15.37;13.77;;;10.30;41.00;;;;;;10344691;28;20257;-73
2024/03/22 01:08:02;;;;;;;16.30;14.27;;;10.40;41.00;;;;;;10342307;28;20238;-73
2024/03/22 01:13:05;;;;;;;14.83;13.33;;;10.40;41.50;;;;;;10372537;28;20735;-72
2024/03/22 01:18:07;;;;;;;14.93;13.43;;;10.40;41.10;;;;;;10379350;28;20280;-72
2024/03/22 01:23:10;;;;;;;15.70;14.10;;;10.50;41.10;;;;;;10383468;28;20253;-72
2024/03/22 01:28:13;;;;;;;13.23;11.93;;;10.50;41.20;;;;;;10396509;28;20253;-73
2024/03/22 01:33:15;;;;;;;14.33;12.97;;;10.60;40.80;;;;;;10382209;28;20780;-73
2024/03/22 01:38:19;;;;;;;12.43;11.33;;;10.60;40.50;;;;;;10359718;28;20265;-73
2024/03/22 01:43:21;;;;;;;12.67;11.37;;;10.60;40.50;;;;;;10346103;28;20377;-72
2024/03/22 01:48:24;;;;;;;12.73;11.50;;;10.60;40.50;;;;;;10337066;28;20242;-73
2024/03/22 01:53:28;;;;;;;12.70;11.40;;;10.50;40.40;;;;;;10337763;28;21367;-73
2024/03/22 01:58:30;;;;;;;11.33;10.20;;;10.50;40.40;;;;;;10341302;28;20246;-73
2024/03/22 02:03:32;;;;;;;12.80;11.60;;;10.40;40.30;;;;;;10350871;28;20253;-73
2024/03/22 02:08:36;;;;;;;13.10;11.80;;;10.30;40.20;;;;;;10341003;28;20245;-73
2024/03/22 02:13:38;;;;;;;14.60;13.20;;;10.20;40.50;;;;;;10369568;28;20862;-73
2024/03/22 02:18:40;;;;;;;13.97;12.57;;;10.10;40.40;;;;;;10379252;28;20912;-73
2024/03/22 02:23:44;;;;;;;14.20;12.83;;;10.10;40.40;;;;;;10382344;28;20248;-73
2024/03/22 02:28:50;;;;;;;13.73;12.33;;;10.10;40.40;;;;;;10382552;28;20296;-73
2024/03/22 02:33:52;;;;;;;13.37;12.03;;;10.00;40.10;;;;;;10385517;28;20605;-73
2024/03/22 02:38:55;;;;;;;12.80;11.60;;;9.90;41.30;;;;;;10384583;28;20303;-73
2024/03/22 02:43:57;;;;;;;14.13;12.07;;;9.80;41.90;;;;;;10387101;28;20241;-73
2024/03/22 02:49:00;;;;;;;14.13;12.73;;;9.90;41.50;;;;;;10388222;28;20708;-73
2024/03/22 02:54:05;;;;;;;12.77;11.47;;;9.80;41.50;;;;;;10394477;28;20311;-72
2024/03/22 02:59:07;;;;;;;12.87;11.73;;;9.90;41.80;;;;;;10385922;28;20272;-72
2024/03/22 03:04:09;;;;;;;13.17;11.80;;;9.90;42.20;;;;;;10388752;28;20331;-73
2024/03/22 03:09:13;;;;;;;11.03;9.90;;;9.90;41.30;;;;;;10389956;28;20296;-73
2024/03/22 03:14:15;;;;;;;13.23;11.97;;;10.00;40.40;;;;;;10383396;28;20306;-72
2024/03/22 03:19:17;;;;;;;13.37;11.97;;;10.00;39.90;;;;;;10390046;28;20260;-72
2024/03/22 03:24:21;;;;;;;12.93;11.67;;;10.00;39.90;;;;;;10394166;28;20246;-72
2024/03/22 03:29:23;;;;;;;12.57;10.30;;;10.00;40.00;;;;;;10390041;28;20257;-73
2024/03/22 03:34:25;;;;;;;10.60;9.57;;;10.00;39.90;;;;;;10392187;28;20255;-72
2024/03/22 03:39:29;;;;;;;10.93;9.93;;;10.00;39.90;;;;;;10391034;28;20367;-73
2024/03/22 03:44:31;;;;;;;11.57;10.57;;;10.00;39.90;;;;;;10389273;28;20256;-73
2024/03/22 03:49:33;;;;;;;11.20;10.10;;;10.00;39.90;;;;;;10384224;28;20284;-73
2024/03/22 03:54:37;;;;;;;12.57;11.37;;;10.00;39.90;;;;;;10388289;28;20246;-73
2024/03/22 03:59:39;;;;;;;12.93;11.40;;;10.00;39.90;;;;;;10387525;28;20293;-73
2024/03/22 04:04:42;;;;;;;12.57;11.37;;;10.00;40.60;;;;;;10382275;28;20283;-73
2024/03/22 04:09:45;;;;;;;11.03;9.97;;;9.90;40.80;;;;;;10384643;28;20938;-72
2024/03/22 04:14:47;;;;;;;10.43;9.40;;;9.90;40.80;;;;;;10383344;28;20302;-72
2024/03/22 04:19:51;;;;;;;11.57;9.80;;;9.90;40.80;;;;;;10385819;28;20771;-73
2024/03/22 04:24:55;;;;;;;11.93;10.83;;;9.90;40.80;;;;;;10385292;28;20234;-73
2024/03/22 04:29:58;;;;;;;10.27;9.27;;;9.80;40.70;;;;;;10384053;28;20233;-73
2024/03/22 04:35:00;;;;;;;11.73;10.60;;;9.80;40.70;;;;;;10383718;28;20268;-73
2024/03/22 04:40:04;;;;;;;11.90;10.70;;;9.70;40.60;;;;;;10390113;28;20252;-72
2024/03/22 04:45:07;;;;;;;11.50;10.40;;;9.80;40.70;;;;;;10381687;28;20830;-72
2024/03/22 04:50:10;;;;;;;11.47;10.13;;;9.70;40.60;;;;;;10383396;28;20309;-72
2024/03/22 04:55:14;;;;;;;11.77;10.63;;;9.70;40.60;;;;;;10379466;28;20253;-72
2024/03/22 05:00:17;;;;;;;10.93;9.83;;;9.70;40.70;;;;;;10397013;28;20245;-73
2024/03/22 05:05:19;;;;;;;11.10;10.00;;;9.60;40.50;;;;;;10382363;28;20708;-73
2024/03/22 05:10:23;;;;;;;11.37;10.20;;;9.60;40.50;;;;;;10382041;28;20252;-73
2024/03/22 05:15:26;;;;;;;10.20;9.20;;;9.60;40.90;;;;;;10362404;28;20300;-73
2024/03/22 05:20:28;;;;;;;10.50;9.50;;;9.60;40.60;;;;;;10351466;28;20309;-72
2024/03/22 05:25:32;;;;;;;10.37;9.37;;;9.60;40.50;;;;;;10348730;28;20256;-73
2024/03/22 05:30:34;;;;;;;12.80;11.50;;;9.60;40.50;;;;;;10337164;28;20305;-72
2024/03/22 05:35:36;;;;;;;11.60;10.40;;;9.50;40.50;;;;;;10355042;28;20346;-72
2024/03/22 05:40:40;;;;;;;12.83;11.53;;;9.40;40.40;;;;;;10341387;28;20317;-72
2024/03/22 05:45:43;;;;;;;12.93;11.60;;;9.10;40.20;;;;;;10331923;28;20281;-72
2024/03/22 05:50:45;;;;;;;10.67;9.67;;;9.00;40.80;;;;;;10330835;28;20361;-72
2024/03/22 05:55:48;;;;;;;10.90;9.90;;;8.90;41.10;;;;;;10336823;28;20258;-73
2024/03/22 06:00:50;;;;;;;12.40;11.27;;;8.90;41.50;;;;;;10334485;28;20345;-72
2024/03/22 06:05:55;;;;;;;12.03;10.93;;;8.90;41.20;;;;;;10336934;28;20277;-72
2024/03/22 06:10:58;;;;;;;13.13;11.53;;;8.90;41.40;;;;;;10340890;28;20253;-72
2024/03/22 06:16:01;;;;;;;13.63;12.17;;;8.80;42.30;;;;;;10361659;28;20332;-71
2024/03/22 06:21:03;;;;;;;12.77;11.47;;;8.80;42.10;;;;;;10334606;28;20246;-71
2024/03/22 06:26:07;;;;;;;13.70;12.10;;;8.80;42.50;;;;;;10333682;28;20333;-71
2024/03/22 06:31:09;;;;;;;13.43;12.03;;;8.90;42.80;;;;;;10335410;28;20396;-71
2024/03/22 06:36:11;;;;;;;13.77;12.37;;;8.80;42.50;;;;;;10335766;28;20249;-71
2024/03/22 06:41:15;;;;;;;13.77;11.63;;;8.90;42.80;;;;;;10333819;28;20712;-71
2024/03/22 06:46:17;;;;;;;15.60;14.00;;;8.90;43.30;;;;;;10338281;28;20250;-71
2024/03/22 06:51:19;;;;;;;14.63;13.13;;;9.00;43.50;;;;;;10336290;28;20525;-71
2024/03/22 06:56:23;;;;;;;14.03;12.63;;;9.10;43.80;;;;;;10335965;28;20298;-71
2024/03/22 07:01:25;;;;;;;15.10;13.60;;;9.20;44.40;;;;;;10372277;28;20316;-71
2024/03/22 07:06:27;;;;;;;14.73;13.27;;;9.40;44.30;;;;;;10381668;28;20268;-71
2024/03/22 07:11:32;;;;;;;13.00;11.73;;;9.50;44.30;;;;;;10378830;28;20261;-71
2024/03/22 07:16:36;;;;;;;13.90;12.60;;;9.60;44.90;;;;;;10380911;28;20306;-71
2024/03/22 07:21:39;;;;;;;14.60;13.17;;;9.70;44.50;;;;;;10380105;28;20254;-71
2024/03/22 07:26:42;;;;;;;14.60;13.13;;;9.80;44.60;;;;;;10380798;28;20258;-70
2024/03/22 07:31:44;;;;;;;15.10;12.83;;;10.00;44.40;;;;;;10378176;28;20262;-71
2024/03/22 07:36:48;;;;;;;15.07;13.60;;;10.10;44.20;;;;;;10392476;28;20250;-71
2024/03/22 07:41:52;;;;;;;14.27;12.90;;;10.20;44.20;;;;;;10385868;28;20256;-70
2024/03/22 07:46:54;;;;;;;15.07;13.47;;;10.40;45.00;;;;;;10392776;28;20299;-71
2024/03/22 07:51:56;;;;;;;15.90;14.30;;;10.60;44.40;;;;;;10387871;28;20276;-71
2024/03/22 07:57:00;;;;;;;16.33;13.83;;;10.70;44.40;;;;;;10386731;28;20272;-71
2024/03/22 08:02:03;;;;;;;14.30;12.90;;;10.90;44.80;;;;;;10383474;28;20263;-71
2024/03/22 08:07:05;;;;;;;14.80;13.20;;;11.10;44.70;;;;;;10377886;28;20315;-71
2024/03/22 08:12:09;;;;;;;14.13;12.73;;;11.30;44.80;;;;;;10382072;28;20258;-71
2024/03/22 08:17:11;;;;;;;15.57;13.90;;;11.40;45.30;;;;;;10381118;28;23176;-71
2024/03/22 08:22:14;;;;;;;13.77;12.37;;;11.70;44.80;;;;;;10383839;28;20290;-72
2024/03/22 08:27:17;;;;;;;14.67;13.27;;;11.90;44.90;;;;;;10396531;28;20268;-71
2024/03/22 08:32:20;;;;;;;14.50;13.20;;;12.10;45.20;;;;;;10356610;28;20253;-71
2024/03/22 08:37:22;;;;;;;14.43;12.93;;;12.30;44.80;;;;;;10380994;28;20307;-71
2024/03/22 08:42:25;;;;;;;13.67;12.27;;;12.50;45.30;;;;;;10382393;28;20445;-71
2024/03/22 08:47:28;;;;;;;15.43;13.93;;;12.70;45.00;;;;;;10350725;28;20280;-72
2024/03/22 08:52:31;;;;;;;15.70;14.17;;;12.90;44.40;;;;;;10342861;28;20254;-72
2024/03/22 08:57:35;;;;;;;15.97;14.20;;;13.10;44.10;;;;;;10344914;28;20392;-73
2024/03/22 09:02:37;;;;;;;15.80;14.30;;;13.30;44.10;;;;;;10337921;28;20699;-71
2024/03/22 09:07:40;;;;;;;15.37;13.93;;;13.50;43.80;;;;;;10334753;28;20305;-70
2024/03/22 09:12:43;;;;;;;15.43;13.90;;;13.70;43.20;;;;;;10349994;28;20301;-70
2024/03/22 09:17:46;;;;;;;14.80;13.03;;;13.80;43.30;;;;;;10344514;28;20250;-70
2024/03/22 09:22:49;;;;;;;13.33;12.17;;;14.00;43.40;;;;;;10338072;28;20250;-70
2024/03/22 09:27:52;;;;;;;14.27;12.87;;;14.10;43.60;;;;;;10349966;28;20253;-70
2024/03/22 09:32:54;;;;;;;13.97;12.67;;;14.20;43.00;;;;;;10356513;28;20855;-70
2024/03/22 09:37:56;;;;;;;13.83;12.57;;;14.40;43.20;;;;;;10354256;28;20254;-71
2024/03/22 09:43:04;;;;;;;14.00;12.73;;;14.60;43.90;;;;;;10345965;28;20291;-71
2024/03/22 09:48:07;;;;;;;12.50;11.33;;;14.80;43.30;;;;;;10338123;28;20254;-71
2024/03/22 09:53:10;;;;;;;12.10;10.97;;;15.00;43.00;;;;;;10367524;28;20300;-71
2024/03/22 09:58:14;;;;;;;11.83;10.63;;;15.20;41.70;;;;;;10338868;28;20258;-71
2024/03/22 10:03:16;;;;;;;10.37;9.37;;;15.30;41.00;;;;;;10357351;28;20253;-70
2024/03/22 10:08:19;;;;;;;10.50;9.60;;;15.40;41.80;;;;;;10369323;28;20321;-71
2024/03/22 10:13:23;;;;;;;8.70;7.93;;;15.60;42.30;;;;;;10358560;28;20258;-70
2024/03/22 10:18:25;;;;;;;9.23;8.33;;;15.90;42.10;;;;;;10342245;28;20781;-70
2024/03/22 10:23:27;;;;;;;10.33;9.33;;;16.30;42.20;;;;;;10343341;28;20262;-70
2024/03/22 10:28:31;;;;;;;11.53;10.33;;;16.60;41.90;;;;;;10339386;28;20731;-71
2024/03/22 10:33:34;;;;;;;10.03;9.03;;;16.90;40.60;;;;;;10336519;28;20249;-71
2024/03/22 10:38:40;;;;;;;9.40;8.40;;;17.20;40.70;;;;;;10359674;28;20237;-71
2024/03/22 10:43:44;;;;;;;9.87;8.93;;;17.40;39.80;;;;;;10378819;28;20260;-71
2024/03/22 10:48:47;;;;;;;9.43;8.63;;;17.50;38.30;;;;;;10375853;28;20242;-71
2024/03/22 10:53:51;;;;;;;9.57;8.67;;;17.50;38.20;;;;;;10381637;28;20252;-73
2024/03/22 10:58:55;;;;;;;10.00;9.10;;;17.50;38.40;;;;;;10380473;28;20889;-71
2024/03/22 11:04:05;;;;;;;8.77;7.93;;;17.50;38.50;;;;;;10373313;28;20242;-71
2024/03/22 11:09:10;;;;;;;9.17;8.27;;;17.60;38.10;;;;;;10389276;28;20300;-70
2024/03/22 11:14:14;;;;;;;10.40;9.40;;;17.60;38.60;;;;;;10392614;28;20241;-71
2024/03/22 11:19:16;;;;;;;9.70;8.80;;;17.70;38.30;;;;;;10390446;28;20249;-71
2024/03/22 11:24:18;;;;;;;8.70;7.80;;;17.80;38.30;;;;;;10391304;28;20280;-71
2024/03/22 11:29:22;;;;;;;9.50;7.53;;;17.80;38.20;;;;;;10386096;28;20261;-71
2024/03/22 11:34:24;;;;;;;8.90;8.10;;;17.80;38.20;;;;;;10386863;28;20290;-70
2024/03/22 11:39:26;;;;;;;8.47;7.67;;;17.90;38.10;;;;;;10384249;28;20323;-70
2024/03/22 11:44:30;;;;;;;8.60;7.80;;;18.00;38.50;;;;;;10392267;28;20253;-71
2024/03/22 11:49:33;;;;;;;7.63;6.93;;;18.10;37.20;;;;;;10379964;28;20324;-71
2024/03/22 11:54:35;;;;;;;7.73;6.73;;;18.20;37.70;;;;;;10385368;28;20254;-71
2024/03/22 11:59:41;;;;;;;7.33;6.63;;;18.30;37.40;;;;;;10383912;28;20265;-70
2024/03/22 12:04:44;;;;;;;7.40;6.80;;;18.30;36.20;;;;;;10384342;28;20726;-70
2024/03/22 12:09:46;;;;;;;6.57;5.97;;;18.40;37.20;;;;;;10389727;28;20253;-71
2024/03/22 12:14:51;;;;;;;8.53;6.30;;;18.50;36.80;;;;;;10377064;28;20308;-72
2024/03/22 12:19:54;;;;;;;6.77;6.13;;;18.60;36.00;;;;;;10378829;28;20284;-71
2024/03/22 12:24:57;;;;;;;5.73;5.23;;;18.70;36.10;;;;;;10379593;28;20651;-71
2024/03/22 12:30:01;;;;;;;5.77;5.30;;;18.80;36.20;;;;;;10383263;28;20254;-71
2024/03/22 12:35:04;;;;;;;5.70;5.20;;;18.90;35.50;;;;;;10376610;28;20371;-71
2024/03/22 12:40:09;;;;;;;6.20;5.70;;;19.00;35.60;;;;;;10385572;28;20311;-71
2024/03/22 12:45:13;;;;;;;5.27;4.87;;;19.10;35.70;;;;;;10383355;28;20267;-71
2024/03/22 12:50:15;;;;;;;5.93;5.40;;;19.20;35.80;;;;;;10381238;28;20276;-71
2024/03/22 12:55:17;;;;;;;6.37;5.77;;;19.30;35.90;;;;;;10371087;28;20348;-71
2024/03/22 13:00:21;;;;;;;6.90;6.20;;;19.40;36.00;;;;;;10369545;28;20312;-71
2024/03/22 13:05:24;;;;;;;6.57;6.00;;;19.40;34.40;;;;;;10375844;28;20314;-71
2024/03/22 13:10:26;;;;;;;7.07;5.93;;;19.50;35.40;;;;;;10367932;28;20373;-71
2024/03/22 13:15:33;;;;;;;7.20;6.60;;;19.50;34.90;;;;;;10369270;28;20304;-71
2024/03/22 13:20:36;;;;;;;7.17;6.47;;;19.50;33.60;;;;;;10377839;28;20418;-71
2024/03/22 13:25:39;;;;;;;7.00;6.07;;;19.50;34.10;;;;;;10376256;28;20360;-71
2024/03/22 13:30:43;;;;;;;6.53;5.87;;;19.50;34.70;;;;;;10378035;28;20320;-72
2024/03/22 13:35:46;;;;;;;7.83;6.20;;;19.60;33.90;;;;;;10394301;28;20253;-71
2024/03/22 13:40:54;;;;;;;6.13;5.53;;;19.60;33.80;;;;;;10376489;28;20264;-71
2024/03/22 13:45:58;;;;;;;5.97;5.40;;;19.60;32.50;;;;;;10378206;28;20263;-72
2024/03/22 13:51:00;;;;;;;5.87;4.93;;;19.70;33.40;;;;;;10376148;28;20249;-78
2024/03/22 13:56:02;;;;;;;5.47;4.97;;;19.70;33.90;;;;;;10377249;28;20312;-70
2024/03/22 14:01:06;;;;;;;6.03;5.53;;;19.80;33.70;;;;;;10376985;28;20303;-71
2024/03/22 14:06:08;;;;;;;5.93;5.43;;;19.90;33.00;;;;;;10378345;28;20331;-71
2024/03/22 14:11:10;;;;;;;6.47;5.53;;;19.90;33.30;;;;;;10377758;28;20802;-71
2024/03/22 14:16:15;;;;;;;6.23;5.67;;;19.90;33.20;;;;;;10375177;28;20229;-71
2024/03/22 14:21:19;;;;;;;8.03;6.13;;;19.80;32.20;;;;;;10372489;28;20313;-72
2024/03/22 14:26:23;;;;;;;6.43;5.83;;;19.80;32.10;;;;;;10374847;28;20248;-73
2024/03/22 14:31:27;;;;;;;5.97;5.37;;;19.80;32.80;;;;;;10387473;28;20303;-73
2024/03/22 14:36:29;;;;;;;6.23;5.70;;;19.80;32.50;;;;;;10378736;28;20256;-73
2024/03/22 14:41:31;;;;;;;5.90;5.40;;;19.80;32.90;;;;;;10387278;28;20260;-78
2024/03/22 14:46:35;;;;;;;7.40;5.80;;;19.80;33.30;;;;;;10389971;28;20249;-73
2024/03/22 14:51:37;;;;;;;6.53;5.87;;;19.90;32.60;;;;;;10380969;28;20384;-73
2024/03/22 14:56:40;;;;;;;7.00;6.30;;;19.90;33.00;;;;;;10386149;28;20312;-73
2024/03/22 15:01:44;;;;;;;10.27;7.10;;;19.90;32.90;;;;;;10387317;28;20242;-73
2024/03/22 15:06:48;;;;;;;7.93;5.87;;;19.80;32.40;;;;;;10386146;28;20295;-73
2024/03/22 15:11:51;;;;;;;6.77;6.17;;;19.80;32.70;;;;;;10387418;28;20299;-73
2024/03/22 15:16:54;;;;;;;8.50;5.90;;;19.90;32.60;;;;;;10384573;28;20747;-71
2024/03/22 15:21:56;;;;;;;11.67;6.30;;;20.00;32.40;;;;;;10386031;28;20245;-72
2024/03/22 15:26:59;;;;;;;8.40;5.77;;;20.00;32.60;;;;;;10388451;28;20652;-79
2024/03/22 15:32:03;;;;;;;5.53;4.97;;;20.10;32.50;;;;;;10393604;28;20253;-70
2024/03/22 15:37:05;;;;;;;7.33;5.13;;;20.20;33.00;;;;;;10386805;28;20253;-76
2024/03/22 15:42:08;;;;;;;4.83;4.43;;;20.30;32.20;;;;;;10382716;28;20288;-73
2024/03/22 15:47:11;;;;;;;6.33;5.13;;;20.40;32.00;;;;;;10386872;28;20246;-71
2024/03/22 15:52:14;;;;;;;3.90;3.60;;;20.40;31.20;;;;;;10378050;28;20731;-71
2024/03/22 15:57:17;;;;;;;6.00;3.97;;;20.50;32.00;;;;;;10379617;28;20272;-72
2024/03/22 16:02:21;;;;;;;5.63;4.50;;;20.50;31.50;;;;;;10381611;28;20317;-73
2024/03/22 16:07:23;;;;;;;7.17;3.90;;;20.50;31.20;;;;;;10391140;28;20723;-77
2024/03/22 16:12:25;;;;;;;6.13;3.90;;;20.40;31.30;;;;;;10386524;28;20308;-75
2024/03/22 16:17:29;;;;;;;7.60;3.77;;;20.50;31.30;;;;;;10384683;28;20253;-72
2024/03/22 16:22:34;;;;;;;4.50;3.33;;;20.40;30.70;;;;;;10379987;28;20301;-73
2024/03/22 16:27:37;;;;;;;4.47;3.13;;;20.40;31.30;;;;;;10372531;28;21248;-72
2024/03/22 16:32:41;;;;;;;8.63;4.17;;;20.40;31.00;;;;;;10380802;28;20242;-75
2024/03/22 16:37:44;;;;;;;8.07;3.30;;;20.40;30.80;;;;;;10350387;28;20237;-75
2024/03/22 16:42:46;;;;;;;19.10;5.20;;;20.40;31.10;;;;;;10349762;28;20246;-75
2024/03/22 16:47:51;;;;;;;7.70;4.47;;;20.40;31.00;;;;;;10347689;28;20277;-75
2024/03/22 16:52:54;;;;;;;4.27;3.10;;;20.40;30.20;;;;;;10377361;28;20280;-74
2024/03/22 16:58:00;;;;;;;4.43;3.30;;;20.30;31.50;;;;;;10389602;28;20249;-74
2024/03/22 17:03:05;;;;;;;7.90;3.30;;;20.40;31.60;;;;;;10370969;28;23678;-73
2024/03/22 17:08:07;;;;;;;8.30;3.53;;;20.40;31.60;;;;;;10332218;28;20310;-72
2024/03/22 17:13:10;;;;;;;3.73;2.90;;;20.40;31.80;;;;;;10320086;28;20373;-73
2024/03/22 17:18:13;;;;;;;5.40;3.27;;;20.40;32.80;;;;;;10316306;28;20875;-73
2024/03/22 17:23:16;;;;;;;3.50;3.03;;;20.40;31.80;;;;;;10323480;28;20770;-73
2024/03/22 17:28:18;;;;;;;3.60;2.87;;;20.40;31.90;;;;;;10331137;28;20321;-73
2024/03/22 17:33:21;;;;;;;2.47;2.27;;;20.40;32.30;;;;;;10357882;28;21151;-73
2024/03/22 17:38:24;;;;;;;3.77;2.50;;;20.30;32.30;;;;;;10327397;28;20333;-73
2024/03/22 17:43:26;;;;;;;4.90;3.20;;;20.30;32.50;;;;;;10322782;28;20317;-73
2024/03/22 17:48:29;;;;;;;3.40;3.10;;;20.20;32.30;;;;;;10326655;28;20332;-73
2024/03/22 17:53:32;;;;;;;5.23;3.90;;;20.10;32.20;;;;;;10335922;28;20318;-72
2024/03/22 17:58:34;;;;;;;7.10;4.17;;;20.00;32.40;;;;;;10335503;28;20321;-73
2024/03/22 18:03:38;;;;;;;5.87;5.17;;;20.00;32.50;;;;;;10339018;28;20722;-72
2024/03/22 18:08:40;;;;;;;9.30;8.37;;;19.90;32.40;;;;;;10344685;28;20242;-73
2024/03/22 18:13:45;;;;;;;11.90;10.80;;;19.80;32.50;;;;;;10338774;28;20296;-73
2024/03/22 18:18:52;;;;;;;10.57;9.47;;;19.80;32.40;;;;;;10338279;28;20246;-73
2024/03/22 18:23:54;;;;;;;10.03;8.07;;;19.70;32.50;;;;;;10334530;28;20255;-73
2024/03/22 18:28:56;;;;;;;7.87;7.10;;;19.60;32.50;;;;;;10338659;28;20250;-73
2024/03/22 18:34:00;;;;;;;6.57;5.97;;;19.50;32.40;;;;;;10346486;28;20314;-73
2024/03/22 18:39:03;;;;;;;6.50;5.90;;;19.40;32.70;;;;;;10377605;28;20241;-72
2024/03/22 18:44:07;;;;;;;9.70;7.87;;;19.30;32.60;;;;;;10382454;28;20260;-73
2024/03/22 18:49:10;;;;;;;8.33;7.53;;;19.20;32.60;;;;;;10373307;28;20802;-73
2024/03/22 18:54:13;;;;;;;8.23;6.83;;;19.00;32.70;;;;;;10380038;28;20319;-73
2024/03/22 18:59:15;;;;;;;8.40;7.60;;;18.90;33.00;;;;;;10381764;28;21138;-73
2024/03/22 19:04:19;;;;;;;7.73;6.57;;;18.90;33.00;;;;;;10381584;28;20249;-73
2024/03/22 19:09:21;;;;;;;6.27;5.67;;;18.70;32.90;;;;;;10381300;28;20265;-73
2024/03/22 19:14:25;;;;;;;7.23;6.63;;;18.60;33.10;;;;;;10381271;28;20254;-73
2024/03/22 19:19:29;;;;;;;6.80;6.07;;;18.40;33.40;;;;;;10379867;28;20301;-73
2024/03/22 19:24:31;;;;;;;6.17;5.57;;;18.30;34.00;;;;;;10371330;28;20253;-73
2024/03/22 19:29:33;;;;;;;6.37;5.77;;;18.20;34.10;;;;;;10390462;28;20318;-73
2024/03/22 19:34:38;;;;;;;7.30;6.70;;;18.20;34.10;;;;;;10388233;28;20259;-73
2024/03/22 19:39:41;;;;;;;7.70;7.00;;;18.20;34.20;;;;;;10377251;28;20321;-73
2024/03/22 19:44:43;;;;;;;6.70;6.20;;;18.10;34.00;;;;;;10374660;28;20316;-73
2024/03/22 19:49:47;;;;;;;6.47;5.97;;;18.10;34.40;;;;;;10378814;28;20253;-73
2024/03/22 19:54:49;;;;;;;8.27;7.47;;;18.00;34.70;;;;;;10373221;28;20704;-73
2024/03/22 19:59:52;;;;;;;6.47;5.87;;;18.00;34.70;;;;;;10379788;28;20332;-73
2024/03/22 20:04:55;;;;;;;8.97;5.43;;;18.00;34.70;;;;;;10372421;28;20369;-73
2024/03/22 20:09:57;;;;;;;4.80;4.40;;;18.00;34.70;;;;;;10379080;28;20372;-73
2024/03/22 20:15:00;;;;;;;7.20;5.10;;;18.00;34.70;;;;;;10374057;28;20328;-73
2024/03/22 20:20:05;;;;;;;6.63;5.17;;;17.90;34.60;;;;;;10375525;28;20245;-72
2024/03/22 20:25:08;;;;;;;6.60;5.57;;;17.80;34.60;;;;;;10373042;28;20341;-73
2024/03/22 20:30:12;;;;;;;7.23;6.00;;;17.70;34.50;;;;;;10393452;28;20304;-73
2024/03/22 20:35:16;;;;;;;6.00;5.40;;;17.50;34.30;;;;;;10381467;28;20332;-72
2024/03/22 20:40:19;;;;;;;6.93;4.83;;;17.40;34.70;;;;;;10385518;28;20958;-73
2024/03/22 20:45:24;;;;;;;6.03;5.43;;;17.30;34.50;;;;;;10386043;28;20249;-73
2024/03/22 20:50:29;;;;;;;6.10;5.60;;;17.20;34.70;;;;;;10394477;28;20300;-73
2024/03/22 20:55:35;;;;;;;6.57;5.97;;;17.10;35.00;;;;;;10375549;28;20253;-73
2024/03/22 21:00:45;;;;;;;6.73;6.10;;;17.10;35.20;;;;;;10385333;28;20311;-73
2024/03/22 21:05:51;;;;;;;7.83;6.20;;;17.00;35.20;;;;;;10387788;28;20257;-73
2024/03/22 21:10:57;;;;;;;6.83;6.07;;;17.10;35.60;;;;;;10384306;28;20258;-73
2024/03/22 21:16:03;;;;;;;6.93;6.20;;;17.10;35.60;;;;;;10383290;28;20257;-73
2024/03/22 21:21:09;;;;;;;6.23;5.60;;;17.10;35.60;;;;;;10378832;28;20249;-73
2024/03/22 21:26:15;;;;;;;6.23;5.60;;;17.10;35.60;;;;;;10381363;28;20269;-73
2024/03/22 21:31:24;;;;;;;6.90;5.90;;;17.10;35.60;;;;;;10379972;28;20277;-73
2024/03/22 21:36:29;;;;;;;7.50;6.47;;;17.20;35.50;;;;;;10378654;28;20714;-73
2024/03/22 21:41:35;;;;;;;8.10;7.30;;;17.20;35.30;;;;;;10385708;28;20254;-74
2024/03/22 21:46:41;;;;;;;8.57;6.47;;;17.20;35.30;;;;;;10383812;28;20237;-73
2024/03/22 21:51:48;;;;;;;7.13;6.43;;;17.00;35.30;;;;;;10377101;28;20304;-70
2024/03/22 21:56:53;;;;;;;9.30;6.70;;;16.90;35.60;;;;;;10377687;28;20357;-70
2024/03/22 22:01:59;;;;;;;8.30;6.93;;;16.90;36.30;;;;;;10378185;28;20314;-69
2024/03/22 22:07:05;;;;;;;7.63;6.83;;;16.80;35.60;;;;;;10382478;28;20241;-70
2024/03/22 22:12:11;;;;;;;7.03;6.33;;;16.80;35.90;;;;;;10379892;28;20250;-70
2024/03/22 22:17:17;;;;;;;6.63;6.03;;;16.70;35.60;;;;;;10378693;28;20301;-69
2024/03/22 22:22:23;;;;;;;7.20;6.50;;;16.60;35.70;;;;;;10376078;28;20262;-70
2024/03/22 22:27:28;;;;;;;8.50;7.70;;;16.60;35.80;;;;;;10381376;28;20267;-70
2024/03/22 22:32:35;;;;;;;7.37;6.43;;;16.50;36.10;;;;;;10382877;28;20280;-69
2024/03/22 22:37:41;;;;;;;6.87;6.17;;;16.50;36.10;;;;;;10376526;28;20276;-69
2024/03/22 22:42:47;;;;;;;6.50;5.90;;;16.50;36.10;;;;;;10376427;28;20253;-69
2024/03/22 22:47:53;;;;;;;6.57;6.00;;;16.50;35.80;;;;;;10382915;28;20314;-69
2024/03/22 22:52:58;;;;;;;6.40;5.80;;;16.50;35.70;;;;;;10380238;28;20254;-70
2024/03/22 22:58:04;;;;;;;6.43;5.70;;;16.40;35.70;;;;;;10383481;28;20249;-69
2024/03/22 23:03:10;;;;;;;5.43;4.93;;;16.40;36.00;;;;;;10381148;28;20261;-70
2024/03/22 23:08:16;;;;;;;5.60;5.10;;;16.40;36.00;;;;;;10394874;28;20288;-69
2024/03/22 23:13:22;;;;;;;6.20;5.57;;;16.40;35.90;;;;;;10386377;28;20260;-70
2024/03/22 23:18:28;;;;;;;6.47;5.87;;;16.40;35.70;;;;;;10381604;28;20340;-70
2024/03/22 23:23:34;;;;;;;6.30;5.80;;;16.40;35.60;;;;;;10384738;28;20250;-70
2024/03/22 23:28:39;;;;;;;6.73;6.07;;;16.30;35.50;;;;;;10387395;28;20250;-69
2024/03/22 23:33:45;;;;;;;6.93;5.73;;;16.10;35.60;;;;;;10386535;28;20242;-69
2024/03/22 23:38:51;;;;;;;6.50;5.90;;;15.80;35.70;;;;;;10384683;28;20812;-70
2024/03/22 23:43:57;;;;;;;5.80;5.30;;;15.70;35.90;;;;;;10385897;28;20269;-70
2024/03/22 23:49:03;;;;;;;6.07;5.57;;;15.60;35.90;;;;;;10387140;28;20260;-70
2024/03/22 23:54:09;;;;;;;5.20;4.70;;;15.60;35.80;;;;;;10389748;28;20303;-70
2024/03/22 23:59:15;;;;;;;5.40;4.90;;;15.70;35.60;;;;;;10385021;28;20776;-69
